Time;durP1;ratioP1;P1;durP2;ratioP2;P2;SDS_P1;SDS_P2;PMS_P1;PMS_P2;Temp;Humidity;BMP_temperature;BMP_pressure;BME280_temperature;BME280_humidity;BME280_pressure;Samples;Min_cycle;Max_cycle;Signal;HPM_P1;HPM_P2
2021/10/22 00:00:54;;;;;;;5.60;4.60;;;;;;;13.52;66.91;97383.00;1733150;83;20994;-84
2021/10/22 00:03:20;;;;;;;6.03;5.40;;;;;;;13.45;67.11;97378.42;1764714;81;21073;-83
2021/10/22 00:05:46;;;;;;;7.90;5.20;;;;;;;13.42;67.25;97375.06;1766520;81;21413;-84
2021/10/22 00:08:13;;;;;;;8.10;4.90;;;;;;;13.30;68.36;97384.08;1766503;81;21012;-84
2021/10/22 00:10:39;;;;;;;7.78;4.90;;;;;;;13.21;67.53;97383.20;1766472;81;20996;-83
2021/10/22 00:13:06;;;;;;;6.83;4.87;;;;;;;13.14;68.20;97381.78;1766752;81;21020;-84
2021/10/22 00:15:32;;;;;;;5.90;4.92;;;;;;;13.09;68.31;97375.83;1761487;80;20990;-84
2021/10/22 00:17:59;;;;;;;5.85;4.62;;;;;;;13.03;68.09;97373.86;1745539;81;20939;-84
2021/10/22 00:20:26;;;;;;;7.08;6.12;;;;;;;12.91;68.20;97380.65;1736376;82;21054;-84
2021/10/22 00:22:53;;;;;;;7.78;5.20;;;;;;;12.81;68.65;97371.40;1736374;83;21621;-84
2021/10/22 00:25:19;;;;;;;6.40;4.95;;;;;;;12.72;68.64;97379.82;1763658;81;21047;-84
2021/10/22 00:27:46;;;;;;;5.65;4.90;;;;;;;12.60;68.45;97375.95;1733226;81;21059;-84
2021/10/22 00:30:13;;;;;;;8.00;5.53;;;;;;;12.45;69.62;97382.39;1764940;81;21038;-84
2021/10/22 00:32:41;;;;;;;7.25;5.10;;;;;;;12.35;69.14;97388.62;1733189;83;21027;-84
2021/10/22 00:35:08;;;;;;;7.62;5.35;;;;;;;12.22;69.09;97383.47;1764886;81;21007;-84
2021/10/22 00:37:36;;;;;;;6.22;5.17;;;;;;;12.13;69.41;97380.30;1733593;83;21094;-84
2021/10/22 00:40:05;;;;;;;6.08;5.28;;;;;;;12.03;69.94;97384.77;1766298;80;21046;-83
2021/10/22 00:42:33;;;;;;;9.20;5.30;;;;;;;11.97;69.91;97389.88;1749121;81;21124;-83
2021/10/22 00:45:02;;;;;;;7.28;5.42;;;;;;;11.89;70.39;97388.89;1753781;81;21043;-84
2021/10/22 00:47:28;;;;;;;6.75;5.70;;;;;;;11.81;71.69;97395.88;1766984;80;21004;-83
2021/10/22 00:49:55;;;;;;;9.85;5.97;;;;;;;11.77;73.36;97402.24;1784775;80;21647;-84
2021/10/22 00:52:25;;;;;;;6.62;5.30;;;;;;;11.74;71.66;97401.03;1784782;80;20952;-83
2021/10/22 00:54:54;;;;;;;8.90;5.50;;;;;;;11.73;71.78;97400.65;1784994;80;21031;-84
2021/10/22 00:57:21;;;;;;;7.83;5.95;;;;;;;11.73;71.67;97400.65;1787790;78;21421;-83
2021/10/22 00:59:51;;;;;;;10.70;6.03;;;;;;;11.73;71.45;97399.31;1762801;81;20995;-84
2021/10/22 01:02:19;;;;;;;8.00;6.28;;;;;;;11.71;71.55;97404.69;1790404;80;21040;-84
2021/10/22 01:04:46;;;;;;;10.10;5.87;;;;;;;11.70;73.04;97403.42;1787468;80;21104;-84
2021/10/22 01:07:15;;;;;;;6.65;5.40;;;;;;;11.68;73.52;97410.61;1774165;79;21424;-84
2021/10/22 01:09:46;;;;;;;13.62;6.00;;;;;;;11.67;72.40;97415.04;1792062;80;20998;-84
2021/10/22 01:12:13;;;;;;;7.95;6.05;;;;;;;11.66;72.53;97407.17;1773708;80;20987;-83
2021/10/22 01:14:41;;;;;;;9.25;6.33;;;;;;;11.67;72.50;97403.58;1780282;81;21032;-83
2021/10/22 01:17:37;;;;;;;7.22;5.80;;;;;;;11.66;72.25;97400.53;1780560;80;21398;-83
2021/10/22 01:20:08;;;;;;;9.93;6.95;;;;;;;11.65;74.06;97408.07;1772164;80;20937;-83
2021/10/22 01:22:37;;;;;;;7.62;6.28;;;;;;;11.61;73.51;97410.88;1781855;80;21004;-83
2021/10/22 01:25:07;;;;;;;9.23;6.47;;;;;;;11.64;73.58;97413.86;1781734;80;20988;-83
2021/10/22 01:27:34;;;;;;;9.33;6.62;;;;;;;11.65;73.26;97412.93;1780273;80;20977;-83
2021/10/22 01:30:08;;;;;;;9.58;6.87;;;;;;;11.66;73.05;97411.99;1790608;80;21056;-83
2021/10/22 01:32:35;;;;;;;11.60;7.08;;;;;;;11.66;73.25;97403.19;1763520;81;21007;-83
2021/10/22 01:35:04;;;;;;;9.00;6.35;;;;;;;11.64;73.33;97407.23;1791859;80;20972;-83
2021/10/22 01:37:31;;;;;;;8.38;6.83;;;;;;;11.64;73.90;97404.58;1790229;80;21000;-83
2021/10/22 01:39:58;;;;;;;12.43;7.10;;;;;;;11.63;74.63;97408.16;1790595;80;20992;-84
2021/10/22 01:42:27;;;;;;;9.10;6.92;;;;;;;11.62;74.38;97407.29;1792064;80;21011;-84
2021/10/22 01:44:54;;;;;;;9.55;7.25;;;;;;;11.60;74.99;97411.81;1791827;80;20999;-85
2021/10/22 01:47:21;;;;;;;10.93;6.92;;;;;;;11.61;75.42;97415.31;1790187;80;21539;-85
2021/10/22 01:49:48;;;;;;;9.83;6.87;;;;;;;11.62;74.69;97417.03;1790435;80;20960;-85
2021/10/22 01:52:15;;;;;;;6.08;5.47;;;;;;;11.62;75.05;97429.85;1776730;80;21472;-84
2021/10/22 01:54:42;;;;;;;7.03;5.35;;;;;;;11.71;74.99;97444.99;1791074;79;20971;-84
2021/10/22 01:57:10;;;;;;;8.85;5.62;;;;;;;11.92;74.68;97453.79;1771106;80;21020;-84
2021/10/22 01:59:39;;;;;;;13.48;5.87;;;;;;;12.10;74.89;97465.91;1791178;80;21060;-84
2021/10/22 02:02:07;;;;;;;7.25;5.85;;;;;;;12.23;75.23;97472.86;1790798;80;21032;-84
2021/10/22 02:04:35;;;;;;;8.20;5.65;;;;;;;12.28;75.65;97482.81;1790875;80;20984;-84
2021/10/22 02:07:02;;;;;;;8.33;4.95;;;;;;;12.26;76.29;97490.00;1791215;80;20973;-84
2021/10/22 02:09:28;;;;;;;6.62;4.20;;;;;;;12.22;77.13;97497.25;1791158;80;21052;-83
2021/10/22 02:11:55;;;;;;;5.35;4.20;;;;;;;12.21;76.28;97480.05;1791188;80;21401;-84
2021/10/22 02:14:22;;;;;;;7.20;3.65;;;;;;;12.20;77.53;97482.31;1791918;80;20964;-84
2021/10/22 02:16:49;;;;;;;7.47;3.42;;;;;;;12.15;76.98;97489.14;1792780;80;20972;-83
2021/10/22 02:19:15;;;;;;;4.28;3.20;;;;;;;12.07;77.87;97487.28;1792643;80;21015;-84
2021/10/22 02:21:42;;;;;;;6.95;3.17;;;;;;;12.10;76.48;97479.19;1792294;80;20984;-84
2021/10/22 02:24:09;;;;;;;5.55;3.02;;;;;;;12.10;76.64;97484.50;1791619;80;20972;-84
2021/10/22 02:26:36;;;;;;;3.98;2.85;;;;;;;12.09;77.28;97484.11;1742649;82;21408;-84
2021/10/22 02:29:03;;;;;;;4.20;2.70;;;;;;;12.11;76.41;97494.19;1742564;82;21357;-83
2021/10/22 02:31:30;;;;;;;4.17;2.30;;;;;;;12.13;76.31;97497.17;1717491;82;20983;-84
2021/10/22 02:33:57;;;;;;;3.62;2.60;;;;;;;12.14;76.12;97501.55;1742389;82;20984;-84
2021/10/22 02:36:23;;;;;;;5.37;2.40;;;;;;;12.14;75.89;97506.86;1741541;82;21000;-84
2021/10/22 02:38:50;;;;;;;3.95;2.65;;;;;;;12.10;76.08;97522.56;1741373;82;20996;-84
2021/10/22 02:41:16;;;;;;;3.60;2.83;;;;;;;12.10;75.85;97521.23;1743725;82;20935;-85
2021/10/22 02:43:47;;;;;;;4.10;2.80;;;;;;;12.08;76.61;97529.72;1742402;82;21059;-85
2021/10/22 02:46:15;;;;;;;3.75;2.42;;;;;;;12.05;76.20;97537.83;1741916;82;21014;-85
2021/10/22 02:48:43;;;;;;;6.37;3.05;;;;;;;12.00;76.34;97535.33;1741036;82;21011;-85
2021/10/22 02:51:10;;;;;;;3.92;2.80;;;;;;;12.00;75.75;97531.34;1740984;82;20991;-84
2021/10/22 02:53:36;;;;;;;5.58;2.58;;;;;;;12.01;75.56;97539.70;1741201;82;21025;-84
2021/10/22 02:56:04;;;;;;;4.50;2.67;;;;;;;11.98;75.73;97537.20;1737936;82;21030;-84
2021/10/22 02:58:30;;;;;;;5.67;2.50;;;;;;;11.96;76.01;97535.05;1726919;82;21047;-85
2021/10/22 03:00:57;;;;;;;3.77;3.10;;;;;;;11.95;75.93;97540.42;1770701;80;21372;-84
2021/10/22 03:03:23;;;;;;;5.35;2.83;;;;;;;11.92;76.24;97548.55;1759064;80;20996;-84
2021/10/22 03:05:50;;;;;;;5.40;2.85;;;;;;;11.89;76.17;97554.84;1772232;81;21106;-84
2021/10/22 03:08:16;;;;;;;3.45;2.62;;;;;;;11.85;76.14;97549.26;1772047;81;21042;-84
2021/10/22 03:10:44;;;;;;;4.25;2.10;;;;;;;11.80;76.97;97539.30;1772844;79;20989;-84
2021/10/22 03:13:10;;;;;;;4.10;2.70;;;;;;;11.75;77.88;97552.75;1771824;81;20963;-84
2021/10/22 03:15:37;;;;;;;2.98;2.30;;;;;;;11.74;76.65;97560.31;1771564;81;21035;-85
2021/10/22 03:18:03;;;;;;;4.87;2.52;;;;;;;11.71;77.41;97567.09;1771269;81;20978;-84
2021/10/22 03:20:31;;;;;;;4.50;3.02;;;;;;;11.68;77.33;97568.09;1772328;79;20967;-84
2021/10/22 03:22:57;;;;;;;5.33;2.92;;;;;;;11.68;77.09;97572.08;1773142;81;20999;-84
2021/10/22 03:25:24;;;;;;;3.87;2.80;;;;;;;11.65;77.17;97574.84;1773074;81;21468;-84
2021/10/22 03:27:53;;;;;;;33.33;20.65;;;;;;;11.62;77.06;97579.81;1773222;81;21027;-85
2021/10/22 03:30:19;;;;;;;2.72;2.40;;;;;;;11.61;78.12;97586.50;1772600;79;21059;-84
2021/10/22 03:32:46;;;;;;;6.72;4.00;;;;;;;11.57;77.45;97586.22;1771512;81;21378;-84
2021/10/22 03:35:12;;;;;;;5.40;3.42;;;;;;;11.54;77.24;97583.23;1771675;81;20939;-84
2021/10/22 03:37:39;;;;;;;5.05;3.08;;;;;;;11.53;77.60;97575.33;1772250;81;21355;-85
2021/10/22 03:40:06;;;;;;;3.87;3.17;;;;;;;11.50;77.35;97573.66;1775153;80;21047;-85
2021/10/22 03:42:33;;;;;;;5.62;3.45;;;;;;;11.44;77.42;97577.44;1803672;79;21249;-85
2021/10/22 03:44:59;;;;;;;8.53;3.80;;;;;;;11.40;78.01;97569.65;1804891;79;20995;-84
2021/10/22 03:47:27;;;;;;;5.97;3.70;;;;;;;11.37;77.98;97577.75;1804690;79;20968;-84
2021/10/22 03:49:54;;;;;;;6.87;4.10;;;;;;;11.33;78.15;97582.28;1787024;79;21544;-84
2021/10/22 03:52:21;;;;;;;10.53;4.53;;;;;;;11.31;78.61;97586.36;1773217;81;21019;-84
2021/10/22 03:54:48;;;;;;;6.72;4.47;;;;;;;11.30;78.27;97590.39;1773002;81;21004;-85
2021/10/22 03:57:14;;;;;;;6.92;3.87;;;;;;;11.28;78.35;97590.44;1772358;79;21063;-84
2021/10/22 03:59:41;;;;;;;5.42;2.87;;;;;;;11.27;80.81;97598.45;1799632;79;21025;-84
2021/10/22 04:02:08;;;;;;;4.53;2.80;;;;;;;11.23;81.79;97603.02;1751243;81;21464;-84
2021/10/22 04:04:35;;;;;;;4.78;3.02;;;;;;;11.23;80.46;97597.72;1792052;80;20999;-84
2021/10/22 04:07:02;;;;;;;4.65;2.98;;;;;;;11.20;80.99;97596.05;1791952;80;20989;-84
2021/10/22 04:09:31;;;;;;;5.17;3.08;;;;;;;11.21;81.24;97596.89;1791568;80;20960;-85
2021/10/22 04:11:59;;;;;;;4.12;2.80;;;;;;;11.21;81.49;97588.94;1790596;80;21000;-85
2021/10/22 04:14:26;;;;;;;6.20;3.40;;;;;;;11.22;81.83;97587.55;1790282;80;21024;-84
2021/10/22 04:16:56;;;;;;;5.17;3.12;;;;;;;11.25;81.51;97588.38;1790428;80;21364;-85
2021/10/22 04:19:21;;;;;;;4.85;2.87;;;;;;;11.27;82.05;97600.66;1791127;80;21019;-84
2021/10/22 04:21:48;;;;;;;4.92;3.40;;;;;;;11.32;81.41;97603.11;1790346;80;20984;-84
2021/10/22 04:24:15;;;;;;;7.25;2.80;;;;;;;11.36;81.45;97607.38;1790370;79;20976;-85
2021/10/22 04:26:41;;;;;;;6.62;2.85;;;;;;;11.40;81.12;97610.77;1790779;80;20983;-85
2021/10/22 04:29:07;;;;;;;2.95;2.30;;;;;;;11.40;81.36;97597.05;1790190;80;20968;-86
2021/10/22 04:31:34;;;;;;;2.92;2.22;;;;;;;11.47;81.05;97603.84;1790278;80;20976;-86
2021/10/22 04:34:00;;;;;;;3.72;2.20;;;;;;;11.54;80.55;97611.58;1790308;80;21047;-86
2021/10/22 04:36:26;;;;;;;3.98;2.55;;;;;;;11.57;80.48;97609.66;1790245;80;21393;-86
2021/10/22 04:41:38;;;;;;;4.42;2.75;;;;;;;11.66;80.21;97613.72;1788450;80;20956;-86
2021/10/22 04:44:05;;;;;;;3.47;2.87;;;;;;;11.70;80.25;97624.63;1787504;80;21096;-85
2021/10/22 04:46:32;;;;;;;7.37;2.70;;;;;;;11.73;80.27;97620.98;1787941;80;20965;-85
2021/10/22 04:49:00;;;;;;;4.87;3.33;;;;;;;11.78;79.95;97614.14;1787853;80;21072;-85
2021/10/22 04:51:26;;;;;;;3.80;3.08;;;;;;;11.78;79.72;97609.71;1791341;79;20999;-85
2021/10/22 04:53:53;;;;;;;5.65;3.55;;;;;;;11.75;79.79;97612.48;1761799;80;21438;-85
2021/10/22 04:56:19;;;;;;;5.87;3.52;;;;;;;11.73;79.76;97615.67;1790273;80;20969;-85
2021/10/22 04:58:47;;;;;;;6.03;3.80;;;;;;;11.72;80.04;97612.14;1791087;80;20952;-85
2021/10/22 05:01:14;;;;;;;6.22;3.83;;;;;;;11.70;80.07;97600.73;1792537;80;20991;-85
2021/10/22 05:03:41;;;;;;;5.67;4.30;;;;;;;11.69;79.75;97600.34;1792105;80;21042;-85
2021/10/22 05:06:07;;;;;;;8.53;4.20;;;;;;;11.65;80.23;97592.55;1792209;80;21452;-85
2021/10/22 05:08:34;;;;;;;6.67;3.80;;;;;;;11.60;80.95;97595.40;1790847;80;21040;-85
2021/10/22 05:11:00;;;;;;;6.55;4.40;;;;;;;11.52;81.08;97593.05;1790308;80;21039;-85
2021/10/22 05:13:26;;;;;;;8.33;3.92;;;;;;;11.46;80.31;97599.94;1791644;80;20946;-85
2021/10/22 05:15:53;;;;;;;4.70;3.40;;;;;;;11.40;81.47;97605.02;1791343;79;21449;-85
2021/10/22 05:18:19;;;;;;;5.15;3.58;;;;;;;11.33;82.71;97607.48;1791109;80;20937;-85
2021/10/22 05:20:46;;;;;;;8.38;4.12;;;;;;;11.27;82.35;97603.76;1790224;80;21003;-85
2021/10/22 05:23:13;;;;;;;4.00;2.72;;;;;;;11.25;84.10;97604.29;1790352;80;20952;-84
2021/10/22 05:25:39;;;;;;;4.67;3.22;;;;;;;11.22;83.12;97603.47;1790154;80;21023;-85
2021/10/22 05:28:06;;;;;;;5.72;3.25;;;;;;;11.20;84.39;97607.98;1791023;80;20963;-85
2021/10/22 05:30:33;;;;;;;7.17;3.20;;;;;;;11.17;85.76;97601.94;1792111;80;20983;-85
2021/10/22 05:33:00;;;;;;;6.62;4.10;;;;;;;11.15;85.33;97610.39;1791919;80;21477;-84
2021/10/22 05:35:26;;;;;;;15.75;6.30;;;;;;;11.10;86.45;97605.28;1792003;80;21357;-85
2021/10/22 05:37:53;;;;;;;26.77;7.12;;;;;;;11.10;83.80;97606.61;1791616;80;20996;-85
2021/10/22 05:40:19;;;;;;;15.15;5.85;;;;;;;11.10;84.99;97614.56;1790525;79;20998;-83
2021/10/22 05:42:47;;;;;;;10.70;4.50;;;;;;;11.11;85.06;97620.71;1791372;80;21015;-84
2021/10/22 05:45:13;;;;;;;7.83;4.42;;;;;;;11.09;84.80;97621.64;1791778;80;20976;-84
2021/10/22 05:47:40;;;;;;;9.25;5.08;;;;;;;11.14;83.58;97628.56;1791781;80;21654;-85
2021/10/22 05:50:09;;;;;;;13.90;5.45;;;;;;;11.16;83.98;97636.87;1790311;80;20967;-84
2021/10/22 05:52:36;;;;;;;8.45;4.70;;;;;;;11.21;83.23;97641.98;1790207;80;20953;-84
2021/10/22 05:55:04;;;;;;;10.23;4.40;;;;;;;11.27;82.97;97656.81;1790395;80;20964;-84
2021/10/22 05:57:31;;;;;;;13.22;4.40;;;;;;;11.33;82.67;97664.53;1790248;80;21031;-84
2021/10/22 05:59:57;;;;;;;5.80;3.58;;;;;;;11.37;82.65;97654.69;1777844;80;21471;-85
2021/10/22 06:02:24;;;;;;;6.53;3.80;;;;;;;11.40;82.58;97655.88;1776439;81;21014;-85
2021/10/22 06:04:50;;;;;;;6.40;4.17;;;;;;;11.44;82.36;97661.48;1765857;81;21018;-84
2021/10/22 06:07:17;;;;;;;7.60;4.10;;;;;;;11.47;82.12;97659.56;1783313;80;21024;-84
2021/10/22 06:09:43;;;;;;;5.92;3.80;;;;;;;11.51;81.81;97653.70;1800977;79;20988;-84
2021/10/22 06:12:10;;;;;;;7.12;4.30;;;;;;;11.56;81.75;97659.69;1800515;79;20992;-85
2021/10/22 06:14:36;;;;;;;9.05;4.20;;;;;;;11.58;82.12;97658.27;1800343;80;21011;-85
2021/10/22 06:17:03;;;;;;;9.08;4.47;;;;;;;11.62;81.81;97662.09;1783108;79;20968;-86
2021/10/22 06:19:34;;;;;;;7.10;4.03;;;;;;;11.69;82.27;97663.17;1743728;82;21019;-86
2021/10/22 06:22:17;;;;;;;6.45;5.25;;;;;;;11.74;81.67;97674.47;1743054;82;21055;-86
2021/10/22 06:24:38;;;;;;;7.85;4.95;;;;;;;11.81;81.62;97680.41;1742596;82;21439;-85
2021/10/22 06:27:05;;;;;;;8.13;5.10;;;;;;;11.84;82.07;97688.27;1784466;80;20961;-84
2021/10/22 06:29:33;;;;;;;8.23;5.65;;;;;;;11.89;81.47;97686.28;1794454;79;20973;-84
2021/10/22 06:32:02;;;;;;;9.05;5.00;;;;;;;11.95;81.21;97681.17;1754311;80;21055;-84
2021/10/22 06:34:29;;;;;;;8.13;4.60;;;;;;;12.01;81.17;97678.30;1738443;82;21032;-85
2021/10/22 06:36:56;;;;;;;8.75;4.70;;;;;;;12.06;81.05;97679.00;1766461;80;20968;-84
2021/10/22 06:39:23;;;;;;;6.85;4.90;;;;;;;12.11;80.85;97683.66;1800394;80;20984;-85
2021/10/22 06:41:50;;;;;;;8.90;4.95;;;;;;;12.16;80.88;97686.59;1782641;80;21389;-87
2021/10/22 06:44:18;;;;;;;8.05;4.95;;;;;;;12.23;80.87;97693.38;1744095;81;20980;-86
2021/10/22 06:46:47;;;;;;;8.93;5.53;;;;;;;12.28;80.92;97698.91;1774447;80;21015;-86
2021/10/22 06:49:13;;;;;;;9.08;5.67;;;;;;;12.34;80.87;97699.58;1751703;80;21036;-86
2021/10/22 06:51:40;;;;;;;8.90;4.92;;;;;;;12.39;80.79;97701.58;1768897;80;21103;-86
2021/10/22 06:54:08;;;;;;;6.03;4.03;;;;;;;12.48;80.81;97702.97;1768709;81;20929;-85
2021/10/22 06:56:34;;;;;;;6.00;4.15;;;;;;;12.58;80.70;97702.14;1761272;80;21018;-88
2021/10/22 06:59:01;;;;;;;6.78;4.55;;;;;;;12.63;78.11;97703.65;1749715;80;21002;-83
2021/10/22 07:01:28;;;;;;;7.00;4.35;;;;;;;12.69;78.22;97706.52;1820403;79;20985;-86
2021/10/22 07:03:55;;;;;;;6.37;4.62;;;;;;;12.76;78.17;97711.99;1791361;80;21007;-86
2021/10/22 07:09:06;;;;;;;5.58;4.00;;;;;;;12.97;77.15;97711.11;1790338;79;20942;-85
2021/10/22 07:11:32;;;;;;;9.48;4.80;;;;;;;13.03;77.20;97704.17;1762212;81;21611;-86
2021/10/22 07:14:01;;;;;;;17.73;11.57;;;;;;;13.07;75.94;97713.30;1784932;79;20992;-87
2021/10/22 07:16:29;;;;;;;26.10;16.35;;;;;;;13.16;76.14;97711.17;1771129;81;20981;-85
2021/10/22 07:18:56;;;;;;;10.93;5.87;;;;;;;13.24;75.43;97722.31;1804653;79;20999;-86
2021/10/22 07:21:25;;;;;;;7.47;5.53;;;;;;;13.34;75.63;97720.96;1807374;79;21015;-85
2021/10/22 07:23:52;;;;;;;9.45;6.10;;;;;;;13.44;75.59;97707.23;1807312;79;20987;-85
2021/10/22 07:26:21;;;;;;;11.97;5.10;;;;;;;13.49;75.10;97708.41;1807507;79;20991;-85
2021/10/22 07:28:48;;;;;;;11.12;5.42;;;;;;;13.50;75.00;97715.00;1785706;79;20967;-85
2021/10/22 07:31:15;;;;;;;6.97;4.85;;;;;;;13.46;74.97;97719.54;1794316;80;21600;-85
2021/10/22 07:33:43;;;;;;;9.85;5.08;;;;;;;13.45;74.88;97718.27;1791759;80;20951;-86
2021/10/22 07:36:13;;;;;;;5.67;4.20;;;;;;;13.48;74.84;97720.84;1764020;81;21057;-85
2021/10/22 07:38:44;;;;;;;4.45;3.87;;;;;;;13.58;74.54;97717.30;1790129;80;20984;-86
2021/10/22 07:41:14;;;;;;;6.83;3.85;;;;;;;13.72;74.00;97716.19;1763601;80;21023;-86
2021/10/22 07:43:41;;;;;;;4.45;2.70;;;;;;;13.86;72.48;97715.53;1794284;80;21018;-86
2021/10/22 07:46:08;;;;;;;15.23;6.03;;;;;;;13.97;71.78;97710.16;1791423;80;21018;-84
2021/10/22 07:48:36;;;;;;;16.32;10.00;;;;;;;14.06;71.40;97698.17;1763706;81;21067;-86
2021/10/22 07:51:03;;;;;;;7.72;5.42;;;;;;;14.13;71.82;97696.95;1792915;79;20990;-85
2021/10/22 07:53:32;;;;;;;5.33;3.77;;;;;;;14.20;71.77;97713.52;1783727;80;20935;-87
2021/10/22 07:55:58;;;;;;;8.10;4.15;;;;;;;14.29;72.33;97714.86;1795219;80;21008;-83
2021/10/22 07:58:25;;;;;;;5.75;3.70;;;;;;;14.39;72.15;97718.33;1795393;80;21167;-85
2021/10/22 08:00:52;;;;;;;4.08;3.47;;;;;;;14.48;72.11;97718.33;1793451;80;20981;-85
2021/10/22 08:03:19;;;;;;;5.75;3.72;;;;;;;14.55;69.85;97722.89;1794358;80;20988;-83
2021/10/22 08:05:45;;;;;;;4.45;3.58;;;;;;;14.62;70.65;97727.45;1776411;80;21015;-87
2021/10/22 08:08:12;;;;;;;6.30;3.75;;;;;;;14.73;70.61;97729.55;1800068;79;20979;-84
2021/10/22 08:10:40;;;;;;;10.63;7.25;;;;;;;14.85;68.89;97730.77;1791836;80;20941;-83
2021/10/22 08:13:11;;;;;;;31.37;18.02;;;;;;;14.96;69.30;97739.55;1735926;81;21004;-82
2021/10/22 08:15:39;;;;;;;5.15;3.40;;;;;;;15.03;69.05;97745.83;1794587;80;21070;-87
2021/10/22 08:18:09;;;;;;;4.30;3.10;;;;;;;15.08;67.60;97742.94;1790626;80;21023;-84
2021/10/22 08:20:52;;;;;;;5.35;3.12;;;;;;;15.08;64.78;97746.06;1789287;80;21014;-84
2021/10/22 08:23:15;;;;;;;4.17;3.10;;;;;;;15.10;67.51;97741.04;1761651;81;21012;-86
2021/10/22 08:25:45;;;;;;;4.40;2.98;;;;;;;15.07;65.45;97742.52;1790101;80;21475;-87
2021/10/22 08:28:11;;;;;;;4.85;3.52;;;;;;;15.05;67.21;97743.09;1806018;79;21033;-85
2021/10/22 08:30:38;;;;;;;6.28;3.47;;;;;;;15.08;67.48;97749.61;1797440;78;20983;-86
2021/10/22 08:33:05;;;;;;;4.45;3.27;;;;;;;15.08;66.39;97747.41;1789860;80;21438;-86
2021/10/22 08:35:34;;;;;;;3.52;2.75;;;;;;;15.09;65.14;97756.66;1798108;79;21367;-87
2021/10/22 08:38:01;;;;;;;4.08;3.15;;;;;;;15.14;67.10;97763.09;1771835;80;20985;-83
2021/10/22 08:40:33;;;;;;;4.58;3.10;;;;;;;15.16;66.72;97762.06;1782297;80;20943;-85
2021/10/22 08:42:59;;;;;;;6.92;3.20;;;;;;;15.20;66.07;97766.77;1791642;80;21015;-83
2021/10/22 08:45:26;;;;;;;5.55;3.15;;;;;;;15.25;66.88;97767.87;1791570;80;21031;-84
2021/10/22 08:47:55;;;;;;;5.15;1.85;;;;;;;15.35;67.39;97773.58;1794317;79;20984;-84
2021/10/22 08:50:23;;;;;;;3.60;1.57;;;;;;;15.47;62.74;97770.73;1788910;79;21016;-88
2021/10/22 08:52:52;;;;;;;4.05;1.70;;;;;;;15.58;60.73;97767.87;1824091;79;21091;-84
2021/10/22 08:55:20;;;;;;;1.70;1.20;;;;;;;15.66;58.49;97763.95;1823514;79;20976;-87
2021/10/22 08:57:49;;;;;;;3.02;1.30;;;;;;;15.68;56.92;97748.69;1824312;78;20968;-86
2021/10/22 09:00:20;;;;;;;1.45;1.07;;;;;;;15.71;58.22;97756.05;1823834;78;21043;-87
2021/10/22 09:02:52;;;;;;;2.25;1.30;;;;;;;15.76;53.09;97753.14;1792646;79;21385;-87
2021/10/22 09:05:23;;;;;;;2.45;1.10;;;;;;;15.83;51.30;97751.84;1753969;80;21061;-84
2021/10/22 09:07:55;;;;;;;5.03;1.20;;;;;;;15.98;54.85;97743.96;1775820;81;21449;-85
2021/10/22 09:10:30;;;;;;;2.08;0.70;;;;;;;16.13;52.51;97749.40;1796185;79;21004;-86
2021/10/22 09:13:02;;;;;;;1.30;0.75;;;;;;;16.34;48.03;97748.66;1807382;79;20983;-87
2021/10/22 09:15:33;;;;;;;9.28;5.87;;;;;;;16.60;48.17;97746.28;1799022;79;21062;-88
2021/10/22 09:18:07;;;;;;;38.35;24.92;;;;;;;16.84;50.55;97751.15;1787818;79;21045;-86
2021/10/22 09:20:42;;;;;;;7.20;5.67;;;;;;;16.98;51.71;97747.17;1760171;81;20997;-88
2021/10/22 09:23:08;;;;;;;3.60;1.57;;;;;;;17.08;50.49;97749.33;1724818;82;21052;-85
2021/10/22 09:25:40;;;;;;;2.35;1.22;;;;;;;17.18;52.24;97755.01;1733889;83;21009;-86
2021/10/22 09:28:04;;;;;;;3.42;1.15;;;;;;;17.24;51.95;97755.97;1759898;81;20980;-87
2021/10/22 09:30:45;;;;;;;3.30;1.40;;;;;;;17.31;52.44;97756.45;1815195;79;21417;-86
2021/10/22 09:33:16;;;;;;;4.20;1.42;;;;;;;17.31;51.32;97754.63;1823883;79;21019;-87
2021/10/22 09:35:50;;;;;;;2.50;1.50;;;;;;;17.21;51.62;97757.02;1823956;79;21022;-83
2021/10/22 09:38:27;;;;;;;1.87;1.32;;;;;;;17.12;51.76;97759.78;1823145;79;20984;-78
2021/10/22 09:40:58;;;;;;;3.45;1.40;;;;;;;17.07;50.81;97759.66;1792779;78;21095;-78
2021/10/22 09:43:41;;;;;;;2.20;1.70;;;;;;;17.06;50.80;97761.97;1770945;81;21026;-78
2021/10/22 09:46:23;;;;;;;2.80;1.40;;;;;;;17.00;51.12;97765.83;1771056;81;21072;-80
2021/10/22 09:48:56;;;;;;;1.95;1.40;;;;;;;16.93;49.51;97763.98;1785826;79;20983;-79
2021/10/22 09:51:25;;;;;;;2.05;1.25;;;;;;;16.92;50.04;97757.38;1762648;80;20996;-80
2021/10/22 09:53:53;;;;;;;3.67;2.17;;;;;;;16.98;50.79;97759.72;1794555;80;20971;-81
2021/10/22 09:56:28;;;;;;;5.67;3.50;;;;;;;17.08;51.85;97753.34;1791545;80;20980;-81
2021/10/22 09:59:11;;;;;;;5.20;2.00;;;;;;;17.24;52.19;97752.80;1785837;80;20972;-82
2021/10/22 10:01:43;;;;;;;4.08;2.17;;;;;;;17.33;50.46;97753.20;1786680;80;21038;-83
2021/10/22 10:04:17;;;;;;;2.22;0.80;;;;;;;17.40;49.51;97754.56;1787766;80;21373;-85
2021/10/22 10:06:44;;;;;;;1.75;1.10;;;;;;;17.36;47.29;97745.83;1790395;80;21067;-86
2021/10/22 10:09:12;;;;;;;1.65;1.10;;;;;;;17.39;48.77;97743.44;1791583;80;21043;-87
2021/10/22 10:11:41;;;;;;;1.37;0.90;;;;;;;17.32;44.89;97745.66;1790468;80;21050;-87
2021/10/22 10:14:14;;;;;;;2.87;1.40;;;;;;;17.26;46.70;97754.92;1789800;80;20997;-86
2021/10/22 10:16:42;;;;;;;4.78;1.77;;;;;;;17.17;46.18;97758.15;1789655;80;20971;-86
2021/10/22 10:19:17;;;;;;;5.15;1.95;;;;;;;17.35;47.72;97749.96;1790898;80;21059;-86
2021/10/22 10:21:48;;;;;;;3.25;1.75;;;;;;;17.60;48.20;97757.33;1791574;80;21031;-86
2021/10/22 10:24:20;;;;;;;5.05;2.30;;;;;;;17.72;46.19;97758.38;1791713;80;21027;-85
2021/10/22 10:27:04;;;;;;;4.00;2.00;;;;;;;17.67;42.05;97753.78;1790576;79;21413;-87
2021/10/22 10:29:36;;;;;;;3.90;1.90;;;;;;;17.83;44.46;97749.67;1791198;80;21007;-86
2021/10/22 10:32:08;;;;;;;3.45;1.95;;;;;;;17.94;45.08;97749.83;1788596;80;20937;-85
2021/10/22 10:34:40;;;;;;;3.55;1.95;;;;;;;18.19;45.49;97749.62;1790006;80;21457;-86
2021/10/22 10:37:24;;;;;;;2.50;1.10;;;;;;;18.47;44.45;97743.80;1787133;80;21064;-86
2021/10/22 10:39:55;;;;;;;1.23;0.70;;;;;;;18.87;43.24;97750.15;1757906;81;20994;-87
2021/10/22 10:42:36;;;;;;;2.25;0.70;;;;;;;19.15;39.12;97740.25;1789778;80;20988;-88
2021/10/22 10:45:11;;;;;;;2.27;0.88;;;;;;;19.23;39.38;97737.87;1789785;80;20980;-86
2021/10/22 10:47:42;;;;;;;1.80;1.00;;;;;;;18.91;37.00;97742.27;1789379;80;21017;-84
2021/10/22 10:50:11;;;;;;;4.45;1.02;;;;;;;18.54;38.00;97747.41;1792660;79;20980;-86
2021/10/22 10:52:58;;;;;;;2.62;1.05;;;;;;;18.47;39.28;97746.95;1794920;79;21084;-87
2021/10/22 10:55:46;;;;;;;2.15;1.05;;;;;;;18.36;40.95;97730.25;1789839;80;21047;-86
2021/10/22 10:58:17;;;;;;;2.15;0.82;;;;;;;18.30;42.13;97743.57;1789989;80;21004;-88
2021/10/22 11:01:03;;;;;;;4.35;0.90;;;;;;;18.25;41.33;97743.02;1788719;80;21123;-88
2021/10/22 11:03:44;;;;;;;1.07;0.78;;;;;;;18.25;39.95;97745.70;1791440;79;20988;-88
2021/10/22 11:06:36;;;;;;;1.70;0.70;;;;;;;18.29;41.16;97746.34;1780900;79;21045;-86
2021/10/22 11:09:04;;;;;;;1.85;0.78;;;;;;;18.51;42.23;97736.91;1780747;80;20960;-88
2021/10/22 11:11:35;;;;;;;1.77;0.75;;;;;;;18.63;39.95;97738.75;1789851;80;21063;-87
2021/10/22 11:14:11;;;;;;;1.52;1.00;;;;;;;18.59;39.76;97738.57;1788706;80;21060;-88
2021/10/22 11:16:54;;;;;;;3.20;0.70;;;;;;;18.49;38.15;97728.95;1790596;79;21410;-88
2021/10/22 11:19:37;;;;;;;2.72;0.80;;;;;;;18.42;38.98;97728.96;1790838;80;21004;-87
2021/10/22 11:22:20;;;;;;;18.55;12.55;;;;;;;18.50;40.17;97721.73;1790478;80;21414;-88
2021/10/22 11:24:43;;;;;;;1.35;0.98;;;;;;;18.46;39.22;97725.98;1789065;80;20972;-87
2021/10/22 11:27:20;;;;;;;1.70;0.70;;;;;;;18.40;39.01;97728.22;1790270;80;21016;-86
2021/10/22 11:29:50;;;;;;;3.62;0.80;;;;;;;18.28;37.96;97732.09;1789962;80;21060;-88
2021/10/22 11:32:20;;;;;;;1.60;0.82;;;;;;;18.36;37.57;97727.56;1789368;80;20969;-87
2021/10/22 11:34:58;;;;;;;2.37;0.80;;;;;;;18.37;37.21;97728.41;1790165;80;21032;-86
2021/10/22 11:37:33;;;;;;;2.67;0.93;;;;;;;18.32;37.20;97728.72;1790517;80;20956;-87
2021/10/22 11:40:05;;;;;;;3.62;0.93;;;;;;;18.29;38.36;97727.57;1791197;80;21590;-86
2021/10/22 11:42:37;;;;;;;2.17;0.78;;;;;;;18.33;39.16;97724.60;1791006;79;21043;-87
2021/10/22 11:45:11;;;;;;;2.92;0.80;;;;;;;18.21;37.28;97725.39;1791253;80;20948;-87